Point Lay, AK

4:13 AM AKST on December 03, 2016 (GMT -0900)
Point Lay | | Change Station

Elev 23 ft 69.73 °N, 163.01 °W | Updated 17 minutes ago

Overcast
Overcast
-4 °F
Feels Like -20 °F
N
9
Wind Variable Wind from SE

Today
High -- | Low -- °F
--% Chance of Precip.
Yesterday
High -- | Low -- °F
Precip. -- in
Pressure 30.35 in
Visibility 10.0 miles
Clouds Overcast 5000 ft
Windchill -20 °F
Dew Point -8 °F
Humidity 83%
Rainfall 0.00 in
Snow Depth Not available.
1:09 PM 2:14 PM
Waxing Crescent, 15% visible
METAR PPIZ 031256Z AUTO 14008KT 10SM OVC050 M20/M22 A3033 RMK AO2 SLP275 T12001222 FZRANO TSNO
Pressure 30.35 in
Visibility 10.0 miles
Clouds Overcast 5000 ft
Windchill -20 °F
Dew Point -8 °F
Humidity 83%
Rainfall 0.00 in
Snow Depth Not available.
1:09 PM 2:14 PM
Waxing Crescent, 15% visible
METAR PPIZ 031256Z AUTO 14008KT 10SM OVC050 M20/M22 A3033 RMK AO2 SLP275 T12001222 FZRANO TSNO

10-Day Weather Forecast

Almanac

Astronomy

Dec. 03, 2016 Rise Set
Actual Time
Civil Twilight
Nautical Twilight
Astronomical Twilight
Moon
Length of Visible Light
Length of Day
Tomorrow will be .
, % of the Moon is Illuminated

Today's Extremes

State Highs State Lows

Community

WunderPhotos

Upload Photos

1,955,443 photos uploaded!

WunderBlog® & News

Nearby

Air Quality

  Air Quality AQ Index Pollutant
Not available.

Snow Depth

Station Depth Elevation

Earthquake Activity

City Distance Mag. Time & Date
Minimum magnitude displayed is 2.5.

Coastal Water Temperatures

Place Temperature

Stations

Nearby Weather Stations

Station Location Temp. Windchill Dew Point Humidity Wind Precip. Elev Updated Type
                   

Watches & Warnings

There are currently no watches in effect.